sensor_id;sensor_type;location;lat;lon;timestamp;pressure;altitude;pressure_sealevel;temperature;humidity
68654;BME280;55636;51.108;13.622;2023-02-07T00:00:54;102913.44;;;-7.20;61.50
68654;BME280;55636;51.108;13.622;2023-02-07T00:01:56;102912.63;;;-7.22;61.50
68654;BME280;55636;51.108;13.622;2023-02-07T00:02:59;102919.88;;;-7.24;61.52
68654;BME280;55636;51.108;13.622;2023-02-07T00:04:02;102918.16;;;-7.25;61.59
68654;BME280;55636;51.108;13.622;2023-02-07T00:05:04;102912.84;;;-7.27;61.61
68654;BME280;55636;51.108;13.622;2023-02-07T00:06:11;102915.53;;;-7.27;61.69
68654;BME280;55636;51.108;13.622;2023-02-07T00:07:13;102912.94;;;-7.28;61.64
68654;BME280;55636;51.108;13.622;2023-02-07T00:08:16;102917.38;;;-7.27;61.50
68654;BME280;55636;51.108;13.622;2023-02-07T00:09:20;102919.25;;;-7.29;61.81
68654;BME280;55636;51.108;13.622;2023-02-07T00:10:22;102921.94;;;-7.29;61.57
68654;BME280;55636;51.108;13.622;2023-02-07T00:11:25;102930.97;;;-7.30;61.67
68654;BME280;55636;51.108;13.622;2023-02-07T00:12:27;102926.53;;;-7.31;61.80
68654;BME280;55636;51.108;13.622;2023-02-07T00:13:29;102918.50;;;-7.31;61.62
68654;BME280;55636;51.108;13.622;2023-02-07T00:14:31;102925.66;;;-7.32;61.86
68654;BME280;55636;51.108;13.622;2023-02-07T00:15:33;102924.81;;;-7.32;61.78
68654;BME280;55636;51.108;13.622;2023-02-07T00:16:37;102929.41;;;-7.34;61.79
68654;BME280;55636;51.108;13.622;2023-02-07T00:17:39;102928.53;;;-7.35;61.85
68654;BME280;55636;51.108;13.622;2023-02-07T00:18:42;102923.22;;;-7.37;61.78
68654;BME280;55636;51.108;13.622;2023-02-07T00:19:44;102928.59;;;-7.37;61.74
68654;BME280;55636;51.108;13.622;2023-02-07T00:20:57;102932.22;;;-7.38;61.93
68654;BME280;55636;51.108;13.622;2023-02-07T00:21:59;102917.00;;;-7.37;61.67
68654;BME280;55636;51.108;13.622;2023-02-07T00:23:01;102927.81;;;-7.39;61.78
68654;BME280;55636;51.108;13.622;2023-02-07T00:24:05;102930.47;;;-7.39;61.83
68654;BME280;55636;51.108;13.622;2023-02-07T00:25:07;102928.78;;;-7.40;61.75
68654;BME280;55636;51.108;13.622;2023-02-07T00:26:11;102935.00;;;-7.39;61.81
68654;BME280;55636;51.108;13.622;2023-02-07T00:27:16;102924.34;;;-7.41;61.87
68654;BME280;55636;51.108;13.622;2023-02-07T00:28:19;102928.81;;;-7.41;61.83
68654;BME280;55636;51.108;13.622;2023-02-07T00:29:21;102927.03;;;-7.41;61.95
68654;BME280;55636;51.108;13.622;2023-02-07T00:30:27;102930.66;;;-7.42;61.94
68654;BME280;55636;51.108;13.622;2023-02-07T00:31:31;102931.50;;;-7.41;61.77
68654;BME280;55636;51.108;13.622;2023-02-07T00:32:36;102928.91;;;-7.43;61.97
68654;BME280;55636;51.108;13.622;2023-02-07T00:33:39;102933.34;;;-7.42;61.95
68654;BME280;55636;51.108;13.622;2023-02-07T00:34:45;102923.63;;;-7.44;61.86
68654;BME280;55636;51.108;13.622;2023-02-07T00:35:56;102928.13;;;-7.45;61.89
68654;BME280;55636;51.108;13.622;2023-02-07T00:36:58;102933.50;;;-7.45;61.71
68654;BME280;55636;51.108;13.622;2023-02-07T00:38:03;102933.56;;;-7.46;61.75
68654;BME280;55636;51.108;13.622;2023-02-07T00:39:12;102934.53;;;-7.47;61.76
68654;BME280;55636;51.108;13.622;2023-02-07T00:40:17;102937.22;;;-7.47;61.58
68654;BME280;55636;51.108;13.622;2023-02-07T00:41:19;102941.78;;;-7.49;61.72
68654;BME280;55636;51.108;13.622;2023-02-07T00:42:21;102937.34;;;-7.50;61.58
68654;BME280;55636;51.108;13.622;2023-02-07T00:43:23;102932.00;;;-7.50;61.78
68654;BME280;55636;51.108;13.622;2023-02-07T00:44:31;102926.78;;;-7.54;61.59
68654;BME280;55636;51.108;13.622;2023-02-07T00:45:34;102931.25;;;-7.54;61.66
68654;BME280;55636;51.108;13.622;2023-02-07T00:46:37;102943.75;;;-7.53;61.56
68654;BME280;55636;51.108;13.622;2023-02-07T00:47:40;102940.28;;;-7.55;61.55
68654;BME280;55636;51.108;13.622;2023-02-07T00:48:43;102944.00;;;-7.58;61.58
68654;BME280;55636;51.108;13.622;2023-02-07T00:49:45;102942.19;;;-7.57;61.47
68654;BME280;55636;51.108;13.622;2023-02-07T00:50:48;102942.34;;;-7.60;61.62
68654;BME280;55636;51.108;13.622;2023-02-07T00:51:50;102946.78;;;-7.59;61.52
68654;BME280;55636;51.108;13.622;2023-02-07T00:52:54;102950.41;;;-7.60;61.50
68654;BME280;55636;51.108;13.622;2023-02-07T00:53:57;102945.97;;;-7.61;61.38
68654;BME280;55636;51.108;13.622;2023-02-07T00:55:00;102949.59;;;-7.62;61.63
68654;BME280;55636;51.108;13.622;2023-02-07T00:56:02;102947.84;;;-7.63;61.46
68654;BME280;55636;51.108;13.622;2023-02-07T00:57:05;102953.31;;;-7.65;61.43
68654;BME280;55636;51.108;13.622;2023-02-07T00:58:07;102946.19;;;-7.66;61.37
68654;BME280;55636;51.108;13.622;2023-02-07T00:59:10;102938.22;;;-7.68;61.43
68654;BME280;55636;51.108;13.622;2023-02-07T01:00:12;102937.38;;;-7.68;61.32
68654;BME280;55636;51.108;13.622;2023-02-07T01:01:15;102941.00;;;-7.69;61.24
68654;BME280;55636;51.108;13.622;2023-02-07T01:02:17;102935.69;;;-7.71;61.40
68654;BME280;55636;51.108;13.622;2023-02-07T01:03:20;102935.78;;;-7.72;61.36
68654;BME280;55636;51.108;13.622;2023-02-07T01:04:24;102932.22;;;-7.73;61.42
68654;BME280;55636;51.108;13.622;2023-02-07T01:05:26;102931.34;;;-7.73;61.45
68654;BME280;55636;51.108;13.622;2023-02-07T01:06:29;102931.44;;;-7.75;61.45
68654;BME280;55636;51.108;13.622;2023-02-07T01:07:34;102937.66;;;-7.74;61.62
68654;BME280;55636;51.108;13.622;2023-02-07T01:08:38;102929.69;;;-7.76;61.58
68654;BME280;55636;51.108;13.622;2023-02-07T01:09:40;102934.25;;;-7.78;61.64
68654;BME280;55636;51.108;13.622;2023-02-07T01:10:44;102931.56;;;-7.78;61.76
68654;BME280;55636;51.108;13.622;2023-02-07T01:11:46;102927.13;;;-7.79;61.52
68654;BME280;55636;51.108;13.622;2023-02-07T01:12:49;102934.34;;;-7.79;61.62
68654;BME280;55636;51.108;13.622;2023-02-07T01:13:52;102932.69;;;-7.82;61.80
68654;BME280;55636;51.108;13.622;2023-02-07T01:14:58;102928.25;;;-7.83;61.64
68654;BME280;55636;51.108;13.622;2023-02-07T01:16:00;102931.72;;;-7.81;61.71
68654;BME280;55636;51.108;13.622;2023-02-07T01:17:03;102932.69;;;-7.82;61.74
68654;BME280;55636;51.108;13.622;2023-02-07T01:18:06;102931.81;;;-7.82;61.73
68654;BME280;55636;51.108;13.622;2023-02-07T01:19:10;102936.28;;;-7.83;61.73
68654;BME280;55636;51.108;13.622;2023-02-07T01:20:14;102937.28;;;-7.84;61.81
68654;BME280;55636;51.108;13.622;2023-02-07T01:21:18;102937.28;;;-7.84;61.67
68654;BME280;55636;51.108;13.622;2023-02-07T01:22:21;102936.47;;;-7.86;61.58
68654;BME280;55636;51.108;13.622;2023-02-07T01:23:24;102930.25;;;-7.87;61.75
68654;BME280;55636;51.108;13.622;2023-02-07T01:24:27;102934.63;;;-7.86;61.57
68654;BME280;55636;51.108;13.622;2023-02-07T01:25:33;102931.19;;;-7.88;61.60
68654;BME280;55636;51.108;13.622;2023-02-07T01:26:38;102930.25;;;-7.87;61.59
68654;BME280;55636;51.108;13.622;2023-02-07T01:27:41;102935.59;;;-7.87;61.45
68654;BME280;55636;51.108;13.622;2023-02-07T01:28:44;102931.25;;;-7.89;61.51
68654;BME280;55636;51.108;13.622;2023-02-07T01:29:46;102930.44;;;-7.91;61.47
68654;BME280;55636;51.108;13.622;2023-02-07T01:30:49;102934.97;;;-7.92;61.35
68654;BME280;55636;51.108;13.622;2023-02-07T01:31:51;102933.22;;;-7.93;61.41
68654;BME280;55636;51.108;13.622;2023-02-07T01:32:54;102927.94;;;-7.94;61.39
68654;BME280;55636;51.108;13.622;2023-02-07T01:33:58;102927.97;;;-7.96;61.46
68654;BME280;55636;51.108;13.622;2023-02-07T01:35:01;102928.94;;;-7.97;61.50
68654;BME280;55636;51.108;13.622;2023-02-07T01:36:07;102932.50;;;-7.96;61.58
68654;BME280;55636;51.108;13.622;2023-02-07T01:37:12;102929.00;;;-7.98;61.54
68654;BME280;55636;51.108;13.622;2023-02-07T01:38:15;102929.97;;;-7.99;61.64
68654;BME280;55636;51.108;13.622;2023-02-07T01:39:17;102925.47;;;-7.99;61.73
68654;BME280;55636;51.108;13.622;2023-02-07T01:40:19;102923.72;;;-8.00;61.42
68654;BME280;55636;51.108;13.622;2023-02-07T01:41:25;102933.59;;;-8.00;61.62
68654;BME280;55636;51.108;13.622;2023-02-07T01:42:29;102927.41;;;-8.03;61.50
68654;BME280;55636;51.108;13.622;2023-02-07T01:43:32;102933.69;;;-8.02;61.67
68654;BME280;55636;51.108;13.622;2023-02-07T01:45:38;102932.88;;;-8.04;61.51
68654;BME280;55636;51.108;13.622;2023-02-07T01:46:42;102924.91;;;-8.06;61.63
68654;BME280;55636;51.108;13.622;2023-02-07T01:47:44;102938.31;;;-8.06;61.79
68654;BME280;55636;51.108;13.622;2023-02-07T01:48:47;102935.63;;;-8.06;61.52
68654;BME280;55636;51.108;13.622;2023-02-07T01:49:51;102940.06;;;-8.05;61.53
68654;BME280;55636;51.108;13.622;2023-02-07T01:50:57;102942.81;;;-8.06;61.67
68654;BME280;55636;51.108;13.622;2023-02-07T01:52:09;102939.25;;;-8.07;61.67
68654;BME280;55636;51.108;13.622;2023-02-07T01:53:15;102934.81;;;-8.08;61.78
68654;BME280;55636;51.108;13.622;2023-02-07T01:54:19;102938.47;;;-8.09;61.77
68654;BME280;55636;51.108;13.622;2023-02-07T01:55:26;102938.47;;;-8.09;61.53
68654;BME280;55636;51.108;13.622;2023-02-07T01:56:30;102937.66;;;-8.11;61.52
68654;BME280;55636;51.108;13.622;2023-02-07T01:57:35;102940.34;;;-8.11;61.57
68654;BME280;55636;51.108;13.622;2023-02-07T01:58:37;102931.44;;;-8.11;61.72
68654;BME280;55636;51.108;13.622;2023-02-07T01:59:41;102936.81;;;-8.11;61.67
68654;BME280;55636;51.108;13.622;2023-02-07T02:00:45;102930.63;;;-8.13;61.66
68654;BME280;55636;51.108;13.622;2023-02-07T02:01:48;102931.50;;;-8.13;61.62
68654;BME280;55636;51.108;13.622;2023-02-07T02:02:51;102933.31;;;-8.13;61.69
68654;BME280;55636;51.108;13.622;2023-02-07T02:03:55;102919.97;;;-8.15;61.63
68654;BME280;55636;51.108;13.622;2023-02-07T02:04:57;102925.34;;;-8.15;61.66
68654;BME280;55636;51.108;13.622;2023-02-07T02:06:00;102917.38;;;-8.16;61.58
68654;BME280;55636;51.108;13.622;2023-02-07T02:07:04;102912.94;;;-8.18;61.60
68654;BME280;55636;51.108;13.622;2023-02-07T02:08:07;102908.53;;;-8.19;61.45
68654;BME280;55636;51.108;13.622;2023-02-07T02:09:12;102906.78;;;-8.20;61.70
68654;BME280;55636;51.108;13.622;2023-02-07T02:10:19;102902.44;;;-8.22;61.62
68654;BME280;55636;51.108;13.622;2023-02-07T02:13:03;102904.34;;;-8.24;61.60
68654;BME280;55636;51.108;13.622;2023-02-07T02:21:57;102904.78;;;-8.33;61.63
68654;BME280;55636;51.108;13.622;2023-02-07T02:23:16;102899.47;;;-8.35;61.79
68654;BME280;55636;51.108;13.622;2023-02-07T02:27:13;102894.28;;;-8.38;61.78
68654;BME280;55636;51.108;13.622;2023-02-07T02:33:56;102891.78;;;-8.43;61.83
68654;BME280;55636;51.108;13.622;2023-02-07T02:36:39;102892.88;;;-8.47;62.09
68654;BME280;55636;51.108;13.622;2023-02-07T02:37:56;102900.94;;;-8.47;62.16
68654;BME280;55636;51.108;13.622;2023-02-07T02:39:12;102907.25;;;-8.48;62.12
68654;BME280;55636;51.108;13.622;2023-02-07T02:40:58;102909.06;;;-8.48;62.30
68654;BME280;55636;51.108;13.622;2023-02-07T02:42:24;102916.25;;;-8.49;62.18
68654;BME280;55636;51.108;13.622;2023-02-07T02:43:45;102909.13;;;-8.50;62.31
68654;BME280;55636;51.108;13.622;2023-02-07T02:45:00;102907.38;;;-8.51;62.22
68654;BME280;55636;51.108;13.622;2023-02-07T02:46:08;102918.03;;;-8.49;62.39
68654;BME280;55636;51.108;13.622;2023-02-07T02:47:12;102909.28;;;-8.53;62.28
68654;BME280;55636;51.108;13.622;2023-02-07T02:48:16;102913.69;;;-8.52;62.52
68654;BME280;55636;51.108;13.622;2023-02-07T02:49:19;102913.69;;;-8.52;62.37
68654;BME280;55636;51.108;13.622;2023-02-07T02:50:26;102914.56;;;-8.52;62.28
68654;BME280;55636;51.108;13.622;2023-02-07T02:51:30;102917.25;;;-8.52;62.44
68654;BME280;55636;51.108;13.622;2023-02-07T02:52:33;102911.00;;;-8.52;62.36
68654;BME280;55636;51.108;13.622;2023-02-07T02:53:55;102913.75;;;-8.54;62.40
68654;BME280;55636;51.108;13.622;2023-02-07T02:55:07;102908.41;;;-8.54;62.60
68654;BME280;55636;51.108;13.622;2023-02-07T02:56:18;102913.63;;;-8.50;62.47
68654;BME280;55636;51.108;13.622;2023-02-07T03:03:48;102905.66;;;-8.52;62.32
68654;BME280;55636;51.108;13.622;2023-02-07T03:05:22;102909.22;;;-8.52;62.57
68654;BME280;55636;51.108;13.622;2023-02-07T03:06:56;102905.66;;;-8.52;62.45
68654;BME280;55636;51.108;13.622;2023-02-07T03:11:09;102907.53;;;-8.54;62.38
68654;BME280;55636;51.108;13.622;2023-02-07T03:12:24;102903.94;;;-8.53;62.39
68654;BME280;55636;51.108;13.622;2023-02-07T03:13:32;102904.88;;;-8.54;62.58
68654;BME280;55636;51.108;13.622;2023-02-07T03:16:19;102899.59;;;-8.56;62.67
68654;BME280;55636;51.108;13.622;2023-02-07T03:17:29;102902.31;;;-8.57;62.51
68654;BME280;55636;51.108;13.622;2023-02-07T03:20:00;102897.91;;;-8.58;62.47
68654;BME280;55636;51.108;13.622;2023-02-07T03:21:11;102896.09;;;-8.58;62.51
68654;BME280;55636;51.108;13.622;2023-02-07T03:22:18;102894.34;;;-8.59;62.45
68654;BME280;55636;51.108;13.622;2023-02-07T03:23:25;102889.91;;;-8.60;62.62
68654;BME280;55636;51.108;13.622;2023-02-07T03:24:33;102897.03;;;-8.59;62.51
68654;BME280;55636;51.108;13.622;2023-02-07T03:25:39;102905.16;;;-8.60;62.44
68654;BME280;55636;51.108;13.622;2023-02-07T03:26:44;102905.16;;;-8.60;62.35
68654;BME280;55636;51.108;13.622;2023-02-07T03:27:49;102901.59;;;-8.61;62.43
68654;BME280;55636;51.108;13.622;2023-02-07T03:28:54;102912.34;;;-8.61;62.45
68654;BME280;55636;51.108;13.622;2023-02-07T03:30:00;102913.19;;;-8.60;62.47
68654;BME280;55636;51.108;13.622;2023-02-07T03:31:04;102912.34;;;-8.61;62.39
68654;BME280;55636;51.108;13.622;2023-02-07T03:32:09;102909.66;;;-8.61;62.38
68654;BME280;55636;51.108;13.622;2023-02-07T03:33:13;102914.03;;;-8.60;62.56
68654;BME280;55636;51.108;13.622;2023-02-07T03:34:19;102907.81;;;-8.60;62.43
68654;BME280;55636;51.108;13.622;2023-02-07T03:35:32;102912.25;;;-8.59;62.69
68654;BME280;55636;51.108;13.622;2023-02-07T03:36:43;102909.56;;;-8.59;62.59
68654;BME280;55636;51.108;13.622;2023-02-07T03:37:50;102909.56;;;-8.59;62.56
68654;BME280;55636;51.108;13.622;2023-02-07T03:38:54;102913.13;;;-8.59;62.56
68654;BME280;55636;51.108;13.622;2023-02-07T03:39:56;102914.94;;;-8.59;62.57
68654;BME280;55636;51.108;13.622;2023-02-07T03:41:04;102906.91;;;-8.59;62.48
68654;BME280;55636;51.108;13.622;2023-02-07T03:42:36;102903.28;;;-8.58;62.54
68654;BME280;55636;51.108;13.622;2023-02-07T03:43:40;102903.28;;;-8.58;62.47
68654;BME280;55636;51.108;13.622;2023-02-07T03:44:44;102907.75;;;-8.59;62.36
68654;BME280;55636;51.108;13.622;2023-02-07T03:45:48;102904.22;;;-8.59;62.42
68654;BME280;55636;51.108;13.622;2023-02-07T03:46:51;102909.56;;;-8.59;62.43
68654;BME280;55636;51.108;13.622;2023-02-07T03:47:53;102907.81;;;-8.60;62.59
68654;BME280;55636;51.108;13.622;2023-02-07T03:48:55;102910.50;;;-8.60;62.58
68654;BME280;55636;51.108;13.622;2023-02-07T03:49:57;102908.69;;;-8.60;62.40
68654;BME280;55636;51.108;13.622;2023-02-07T03:51:00;102913.19;;;-8.60;62.45
68654;BME280;55636;51.108;13.622;2023-02-07T03:52:04;102906.09;;;-8.61;62.35
68654;BME280;55636;51.108;13.622;2023-02-07T03:53:06;102901.59;;;-8.61;62.44
68654;BME280;55636;51.108;13.622;2023-02-07T03:54:09;102897.19;;;-8.62;62.40
68654;BME280;55636;51.108;13.622;2023-02-07T03:55:12;102899.94;;;-8.63;62.48
68654;BME280;55636;51.108;13.622;2023-02-07T03:56:14;102889.22;;;-8.63;62.29
68654;BME280;55636;51.108;13.622;2023-02-07T03:57:17;102894.63;;;-8.65;62.21
68654;BME280;55636;51.108;13.622;2023-02-07T03:58:19;102897.31;;;-8.65;62.29
68654;BME280;55636;51.108;13.622;2023-02-07T03:59:21;102891.94;;;-8.65;62.40
68654;BME280;55636;51.108;13.622;2023-02-07T04:00:24;102890.22;;;-8.66;62.40
68654;BME280;55636;51.108;13.622;2023-02-07T04:01:26;102892.97;;;-8.68;62.39
68654;BME280;55636;51.108;13.622;2023-02-07T04:02:29;102895.59;;;-8.66;62.27
68654;BME280;55636;51.108;13.622;2023-02-07T04:03:31;102895.59;;;-8.66;62.34
68654;BME280;55636;51.108;13.622;2023-02-07T04:04:33;102896.44;;;-8.65;62.18
68654;BME280;55636;51.108;13.622;2023-02-07T04:05:36;102893.84;;;-8.67;62.31
68654;BME280;55636;51.108;13.622;2023-02-07T04:06:38;102900.06;;;-8.66;62.06
68654;BME280;55636;51.108;13.622;2023-02-07T04:07:40;102899.22;;;-8.67;62.12
68654;BME280;55636;51.108;13.622;2023-02-07T04:08:43;102892.91;;;-8.66;62.00
68654;BME280;55636;51.108;13.622;2023-02-07T04:09:45;102890.28;;;-8.68;62.00
68654;BME280;55636;51.108;13.622;2023-02-07T04:10:58;102893.94;;;-8.69;61.59
68654;BME280;55636;51.108;13.622;2023-02-07T04:12:01;102893.03;;;-8.69;61.63
68654;BME280;55636;51.108;13.622;2023-02-07T04:13:03;102886.81;;;-8.70;61.55
68654;BME280;55636;51.108;13.622;2023-02-07T04:14:06;102886.00;;;-8.72;61.38
68654;BME280;55636;51.108;13.622;2023-02-07T04:15:09;102890.50;;;-8.72;61.25
68654;BME280;55636;51.108;13.622;2023-02-07T04:16:11;102889.66;;;-8.73;61.24
68654;BME280;55636;51.108;13.622;2023-02-07T04:17:14;102887.91;;;-8.74;61.36
68654;BME280;55636;51.108;13.622;2023-02-07T04:18:16;102887.91;;;-8.74;61.23
68654;BME280;55636;51.108;13.622;2023-02-07T04:19:18;102882.66;;;-8.77;61.11
68654;BME280;55636;51.108;13.622;2023-02-07T04:20:21;102887.19;;;-8.77;61.22
68654;BME280;55636;51.108;13.622;2023-02-07T04:21:23;102895.28;;;-8.79;61.05
68654;BME280;55636;51.108;13.622;2023-02-07T04:22:27;102888.19;;;-8.80;61.15
68654;BME280;55636;51.108;13.622;2023-02-07T04:23:30;102883.75;;;-8.81;61.07
68654;BME280;55636;51.108;13.622;2023-02-07T04:24:32;102888.25;;;-8.81;61.19
68654;BME280;55636;51.108;13.622;2023-02-07T04:25:39;102892.72;;;-8.82;61.15
68654;BME280;55636;51.108;13.622;2023-02-07T04:26:41;102891.88;;;-8.82;61.10
68654;BME280;55636;51.108;13.622;2023-02-07T04:27:43;102885.66;;;-8.83;61.11
68654;BME280;55636;51.108;13.622;2023-02-07T04:28:45;102883.03;;;-8.85;61.14
68654;BME280;55636;51.108;13.622;2023-02-07T04:29:48;102886.53;;;-8.82;61.14
68654;BME280;55636;51.108;13.622;2023-02-07T04:30:50;102881.31;;;-8.86;61.01
68654;BME280;55636;51.108;13.622;2023-02-07T04:31:53;102878.63;;;-8.86;61.04
68654;BME280;55636;51.108;13.622;2023-02-07T04:32:57;102884.94;;;-8.87;61.07
68654;BME280;55636;51.108;13.622;2023-02-07T04:33:59;102880.50;;;-8.88;61.13
68654;BME280;55636;51.108;13.622;2023-02-07T04:35:02;102893.03;;;-8.88;61.29
68654;BME280;55636;51.108;13.622;2023-02-07T04:36:06;102901.09;;;-8.88;61.25
68654;BME280;55636;51.108;13.622;2023-02-07T04:37:08;102900.28;;;-8.90;61.30
68654;BME280;55636;51.108;13.622;2023-02-07T04:38:11;102903.81;;;-8.90;61.35
68654;BME280;55636;51.108;13.622;2023-02-07T04:39:13;102909.25;;;-8.91;61.25
68654;BME280;55636;51.108;13.622;2023-02-07T04:40:15;102903.88;;;-8.91;61.26
68654;BME280;55636;51.108;13.622;2023-02-07T04:41:18;102897.66;;;-8.92;61.23
68654;BME280;55636;51.108;13.622;2023-02-07T04:42:20;102901.28;;;-8.93;61.39
68654;BME280;55636;51.108;13.622;2023-02-07T04:43:22;102899.47;;;-8.92;61.42
68654;BME280;55636;51.108;13.622;2023-02-07T04:44:25;102905.78;;;-8.93;61.42
68654;BME280;55636;51.108;13.622;2023-02-07T04:45:27;102903.97;;;-8.93;61.40
68654;BME280;55636;51.108;13.622;2023-02-07T04:46:29;102906.63;;;-8.93;61.57
68654;BME280;55636;51.108;13.622;2023-02-07T04:47:31;102903.19;;;-8.95;61.64
68654;BME280;55636;51.108;13.622;2023-02-07T04:48:35;102901.34;;;-8.94;61.59
68654;BME280;55636;51.108;13.622;2023-02-07T04:49:38;102899.59;;;-8.95;61.53
68654;BME280;55636;51.108;13.622;2023-02-07T04:50:41;102908.56;;;-8.96;61.53
68654;BME280;55636;51.108;13.622;2023-02-07T04:51:43;102903.28;;;-8.98;61.51
68654;BME280;55636;51.108;13.622;2023-02-07T04:52:47;102905.97;;;-8.98;61.50
68654;BME280;55636;51.108;13.622;2023-02-07T04:53:50;102907.81;;;-8.98;61.66
68654;BME280;55636;51.108;13.622;2023-02-07T04:54:53;102914.94;;;-8.99;61.77
68654;BME280;55636;51.108;13.622;2023-02-07T04:55:55;102908.72;;;-8.99;61.86
68654;BME280;55636;51.108;13.622;2023-02-07T04:56:57;102923.94;;;-9.00;61.92
68654;BME280;55636;51.108;13.622;2023-02-07T04:58:00;102915.97;;;-9.02;62.03
68654;BME280;55636;51.108;13.622;2023-02-07T04:59:02;102913.28;;;-9.02;62.07
68654;BME280;55636;51.108;13.622;2023-02-07T05:00:04;102917.78;;;-9.02;62.04
68654;BME280;55636;51.108;13.622;2023-02-07T05:01:07;102911.56;;;-9.03;62.00
68654;BME280;55636;51.108;13.622;2023-02-07T05:02:10;102908.88;;;-9.03;62.00
68654;BME280;55636;51.108;13.622;2023-02-07T05:03:12;102912.41;;;-9.02;62.17
68654;BME280;55636;51.108;13.622;2023-02-07T05:04:15;102911.56;;;-9.03;61.94
68654;BME280;55636;51.108;13.622;2023-02-07T05:05:17;102915.19;;;-9.04;61.92
68654;BME280;55636;51.108;13.622;2023-02-07T05:06:20;102917.84;;;-9.04;62.13
68654;BME280;55636;51.108;13.622;2023-02-07T05:07:23;102920.53;;;-9.04;62.05
68654;BME280;55636;51.108;13.622;2023-02-07T05:08:25;102916.19;;;-9.06;61.91
68654;BME280;55636;51.108;13.622;2023-02-07T05:09:27;102920.59;;;-9.05;62.00
68654;BME280;55636;51.108;13.622;2023-02-07T05:10:30;102918.78;;;-9.05;62.01
68654;BME280;55636;51.108;13.622;2023-02-07T05:11:32;102926.75;;;-9.03;62.09
68654;BME280;55636;51.108;13.622;2023-02-07T05:12:35;102920.59;;;-9.05;62.13
68654;BME280;55636;51.108;13.622;2023-02-07T05:13:38;102919.72;;;-9.06;62.04
68654;BME280;55636;51.108;13.622;2023-02-07T05:14:40;102919.72;;;-9.06;62.21
68654;BME280;55636;51.108;13.622;2023-02-07T05:15:43;102919.63;;;-9.04;62.10
68654;BME280;55636;51.108;13.622;2023-02-07T05:16:47;102921.53;;;-9.06;62.01
68654;BME280;55636;51.108;13.622;2023-02-07T05:17:49;102916.19;;;-9.06;62.07
68654;BME280;55636;51.108;13.622;2023-02-07T05:18:53;102920.59;;;-9.05;62.16
68654;BME280;55636;51.108;13.622;2023-02-07T05:19:56;102918.78;;;-9.05;62.37
68654;BME280;55636;51.108;13.622;2023-02-07T05:20:58;102921.38;;;-9.03;62.50
68654;BME280;55636;51.108;13.622;2023-02-07T05:22:01;102916.03;;;-9.03;62.56
68654;BME280;55636;51.108;13.622;2023-02-07T05:23:03;102927.69;;;-9.04;62.65
68654;BME280;55636;51.108;13.622;2023-02-07T05:24:08;102927.63;;;-9.03;62.50
68654;BME280;55636;51.108;13.622;2023-02-07T05:25:10;102924.97;;;-9.03;62.60
68654;BME280;55636;51.108;13.622;2023-02-07T05:26:12;102927.63;;;-9.03;62.75
68654;BME280;55636;51.108;13.622;2023-02-07T05:27:15;102928.41;;;-9.01;62.73
68654;BME280;55636;51.108;13.622;2023-02-07T05:28:18;102923.06;;;-9.01;62.65
68654;BME280;55636;51.108;13.622;2023-02-07T05:29:20;102924.81;;;-8.99;62.74
68654;BME280;55636;51.108;13.622;2023-02-07T05:30:23;102928.34;;;-8.99;62.89
68654;BME280;55636;51.108;13.622;2023-02-07T05:31:26;102930.09;;;-8.98;62.86
68654;BME280;55636;51.108;13.622;2023-02-07T05:32:48;102930.09;;;-8.98;62.96
68654;BME280;55636;51.108;13.622;2023-02-07T05:34:07;102926.47;;;-8.97;62.97
68654;BME280;55636;51.108;13.622;2023-02-07T05:35:09;102921.97;;;-8.96;62.94
68654;BME280;55636;51.108;13.622;2023-02-07T05:36:11;102913.09;;;-8.97;62.75
68654;BME280;55636;51.108;13.622;2023-02-07T05:37:16;102918.44;;;-8.97;62.85
68654;BME280;55636;51.108;13.622;2023-02-07T05:38:18;102925.53;;;-8.96;62.97
68654;BME280;55636;51.108;13.622;2023-02-07T05:39:21;102924.66;;;-8.96;62.96
68654;BME280;55636;51.108;13.622;2023-02-07T05:40:23;102923.81;;;-8.97;62.92
68654;BME280;55636;51.108;13.622;2023-02-07T05:41:26;102922.88;;;-8.96;63.02
68654;BME280;55636;51.108;13.622;2023-02-07T05:42:29;102927.34;;;-8.96;63.06
68654;BME280;55636;51.108;13.622;2023-02-07T05:43:32;102930.91;;;-8.96;63.06
68654;BME280;55636;51.108;13.622;2023-02-07T05:44:34;102927.28;;;-8.95;62.99
68654;BME280;55636;51.108;13.622;2023-02-07T05:45:36;102934.38;;;-8.94;63.10
68654;BME280;55636;51.108;13.622;2023-02-07T05:46:39;102933.59;;;-8.96;63.11
68654;BME280;55636;51.108;13.622;2023-02-07T05:47:41;102931.69;;;-8.94;63.09
68654;BME280;55636;51.108;13.622;2023-02-07T05:48:45;102936.19;;;-8.94;63.24
68654;BME280;55636;51.108;13.622;2023-02-07T05:49:48;102937.94;;;-8.93;63.19
68654;BME280;55636;51.108;13.622;2023-02-07T05:50:50;102938.06;;;-8.96;63.19
68654;BME280;55636;51.108;13.622;2023-02-07T05:51:52;102941.63;;;-8.96;63.21
68654;BME280;55636;51.108;13.622;2023-02-07T05:52:54;102938.06;;;-8.96;63.23
68654;BME280;55636;51.108;13.622;2023-02-07T05:53:56;102941.53;;;-8.94;63.24
68654;BME280;55636;51.108;13.622;2023-02-07T05:54:59;102936.13;;;-8.93;63.12
68654;BME280;55636;51.108;13.622;2023-02-07T05:56:01;102942.31;;;-8.92;63.31
68654;BME280;55636;51.108;13.622;2023-02-07T05:57:05;102939.59;;;-8.91;63.24
68654;BME280;55636;51.108;13.622;2023-02-07T05:58:09;102941.41;;;-8.91;63.21
68654;BME280;55636;51.108;13.622;2023-02-07T05:59:11;102932.34;;;-8.89;63.17
68654;BME280;55636;51.108;13.622;2023-02-07T06:00:16;102930.56;;;-8.88;63.25
68654;BME280;55636;51.108;13.622;2023-02-07T06:01:19;102929.66;;;-8.89;63.12
68654;BME280;55636;51.108;13.622;2023-02-07T06:02:22;102925.19;;;-8.88;63.31
68654;BME280;55636;51.108;13.622;2023-02-07T06:03:24;102928.66;;;-8.86;63.24
68654;BME280;55636;51.108;13.622;2023-02-07T06:04:28;102917.94;;;-8.86;63.16
68654;BME280;55636;51.108;13.622;2023-02-07T06:05:30;102920.63;;;-8.86;63.26
68654;BME280;55636;51.108;13.622;2023-02-07T06:06:34;102920.69;;;-8.88;63.30